sensor_id;sensor_type;location;lat;lon;timestamp;temperature;humidity
47590;DHT22;33316;52.298;9.056;2023-04-01T00:00:44;11.40;91.10
47590;DHT22;33316;52.298;9.056;2023-04-01T00:03:11;11.40;91.20
47590;DHT22;33316;52.298;9.056;2023-04-01T00:05:37;11.40;91.20
47590;DHT22;33316;52.298;9.056;2023-04-01T00:08:04;11.40;91.30
47590;DHT22;33316;52.298;9.056;2023-04-01T00:10:32;11.40;91.40
47590;DHT22;33316;52.298;9.056;2023-04-01T00:12:58;11.30;91.50
47590;DHT22;33316;52.298;9.056;2023-04-01T00:15:25;11.30;91.50
47590;DHT22;33316;52.298;9.056;2023-04-01T00:17:51;11.30;91.50
47590;DHT22;33316;52.298;9.056;2023-04-01T00:20:18;11.30;91.50
47590;DHT22;33316;52.298;9.056;2023-04-01T00:22:44;11.30;91.50
47590;DHT22;33316;52.298;9.056;2023-04-01T00:25:11;11.30;91.50
47590;DHT22;33316;52.298;9.056;2023-04-01T00:27:39;11.30;91.60
47590;DHT22;33316;52.298;9.056;2023-04-01T00:30:05;11.30;91.60
47590;DHT22;33316;52.298;9.056;2023-04-01T00:32:32;11.30;91.60
47590;DHT22;33316;52.298;9.056;2023-04-01T00:34:59;11.30;91.60
47590;DHT22;33316;52.298;9.056;2023-04-01T00:37:25;11.30;91.60
47590;DHT22;33316;52.298;9.056;2023-04-01T00:39:52;11.30;91.60
47590;DHT22;33316;52.298;9.056;2023-04-01T00:42:19;11.30;91.50
47590;DHT22;33316;52.298;9.056;2023-04-01T00:44:49;11.30;91.50
47590;DHT22;33316;52.298;9.056;2023-04-01T00:47:16;11.30;91.40
47590;DHT22;33316;52.298;9.056;2023-04-01T00:49:44;11.30;91.40
47590;DHT22;33316;52.298;9.056;2023-04-01T00:52:12;11.20;91.30
47590;DHT22;33316;52.298;9.056;2023-04-01T00:54:40;11.20;91.30
47590;DHT22;33316;52.298;9.056;2023-04-01T00:57:09;11.20;91.30
47590;DHT22;33316;52.298;9.056;2023-04-01T00:59:37;11.30;91.30
47590;DHT22;33316;52.298;9.056;2023-04-01T01:02:07;11.30;91.20
47590;DHT22;33316;52.298;9.056;2023-04-01T01:04:34;11.20;91.20
47590;DHT22;33316;52.298;9.056;2023-04-01T01:07:03;11.30;91.10
47590;DHT22;33316;52.298;9.056;2023-04-01T01:09:35;11.20;91.10
47590;DHT22;33316;52.298;9.056;2023-04-01T01:12:06;11.30;91.10
47590;DHT22;33316;52.298;9.056;2023-04-01T01:14:37;11.30;91.10
47590;DHT22;33316;52.298;9.056;2023-04-01T01:17:08;11.20;91.00
47590;DHT22;33316;52.298;9.056;2023-04-01T01:19:49;11.20;91.00
47590;DHT22;33316;52.298;9.056;2023-04-01T01:22:22;11.20;91.00
47590;DHT22;33316;52.298;9.056;2023-04-01T01:24:55;11.20;90.90
47590;DHT22;33316;52.298;9.056;2023-04-01T01:27:25;11.20;90.90
47590;DHT22;33316;52.298;9.056;2023-04-01T01:30:14;11.20;90.90
47590;DHT22;33316;52.298;9.056;2023-04-01T01:35:40;11.20;90.90
47590;DHT22;33316;52.298;9.056;2023-04-01T01:38:10;11.20;90.90
47590;DHT22;33316;52.298;9.056;2023-04-01T01:40:38;11.20;90.80
47590;DHT22;33316;52.298;9.056;2023-04-01T01:43:06;11.20;90.80
47590;DHT22;33316;52.298;9.056;2023-04-01T01:45:34;11.20;90.80
47590;DHT22;33316;52.298;9.056;2023-04-01T01:48:02;11.20;90.80
47590;DHT22;33316;52.298;9.056;2023-04-01T01:50:29;11.20;90.80
47590;DHT22;33316;52.298;9.056;2023-04-01T01:53:01;11.20;90.80
47590;DHT22;33316;52.298;9.056;2023-04-01T01:55:28;11.20;90.80
47590;DHT22;33316;52.298;9.056;2023-04-01T01:57:55;11.20;90.80
47590;DHT22;33316;52.298;9.056;2023-04-01T02:00:24;11.20;90.90
47590;DHT22;33316;52.298;9.056;2023-04-01T02:02:51;11.20;90.90
47590;DHT22;33316;52.298;9.056;2023-04-01T02:05:19;11.20;90.90
47590;DHT22;33316;52.298;9.056;2023-04-01T02:07:49;11.20;90.90
47590;DHT22;33316;52.298;9.056;2023-04-01T02:10:20;11.10;91.00
47590;DHT22;33316;52.298;9.056;2023-04-01T02:12:48;11.10;91.00
47590;DHT22;33316;52.298;9.056;2023-04-01T02:15:16;11.10;91.00
47590;DHT22;33316;52.298;9.056;2023-04-01T02:17:43;11.10;91.00
47590;DHT22;33316;52.298;9.056;2023-04-01T02:20:11;11.10;91.00
47590;DHT22;33316;52.298;9.056;2023-04-01T02:22:40;11.00;91.00
47590;DHT22;33316;52.298;9.056;2023-04-01T02:25:09;11.00;91.10
47590;DHT22;33316;52.298;9.056;2023-04-01T02:27:38;11.00;91.10
47590;DHT22;33316;52.298;9.056;2023-04-01T02:30:05;11.10;91.10
47590;DHT22;33316;52.298;9.056;2023-04-01T02:32:32;11.00;91.10
47590;DHT22;33316;52.298;9.056;2023-04-01T02:34:59;11.00;91.10
47590;DHT22;33316;52.298;9.056;2023-04-01T02:37:28;11.00;91.10
47590;DHT22;33316;52.298;9.056;2023-04-01T02:39:58;11.00;91.10
47590;DHT22;33316;52.298;9.056;2023-04-01T02:42:25;11.00;91.10
47590;DHT22;33316;52.298;9.056;2023-04-01T02:44:52;11.00;91.10
47590;DHT22;33316;52.298;9.056;2023-04-01T02:47:19;11.00;91.10
47590;DHT22;33316;52.298;9.056;2023-04-01T02:49:45;11.00;91.10
47590;DHT22;33316;52.298;9.056;2023-04-01T02:52:12;11.00;91.10
47590;DHT22;33316;52.298;9.056;2023-04-01T02:54:38;11.00;91.10
47590;DHT22;33316;52.298;9.056;2023-04-01T02:57:05;11.00;91.20
47590;DHT22;33316;52.298;9.056;2023-04-01T02:59:32;11.00;91.20
47590;DHT22;33316;52.298;9.056;2023-04-01T03:02:00;11.00;91.20
47590;DHT22;33316;52.298;9.056;2023-04-01T03:04:26;10.90;91.30
47590;DHT22;33316;52.298;9.056;2023-04-01T03:06:53;10.90;91.30
47590;DHT22;33316;52.298;9.056;2023-04-01T03:09:20;10.90;91.30
47590;DHT22;33316;52.298;9.056;2023-04-01T03:11:47;10.90;91.30
47590;DHT22;33316;52.298;9.056;2023-04-01T03:14:13;10.90;91.30
47590;DHT22;33316;52.298;9.056;2023-04-01T03:16:40;10.90;91.30
47590;DHT22;33316;52.298;9.056;2023-04-01T03:19:07;10.90;91.30
47590;DHT22;33316;52.298;9.056;2023-04-01T03:21:34;10.90;91.40
47590;DHT22;33316;52.298;9.056;2023-04-01T03:24:01;10.90;91.70
47590;DHT22;33316;52.298;9.056;2023-04-01T03:26:27;10.90;91.40
47590;DHT22;33316;52.298;9.056;2023-04-01T03:28:54;10.90;91.40
47590;DHT22;33316;52.298;9.056;2023-04-01T03:31:21;10.90;91.50
47590;DHT22;33316;52.298;9.056;2023-04-01T03:33:47;10.90;91.50
47590;DHT22;33316;52.298;9.056;2023-04-01T03:36:16;10.90;91.50
47590;DHT22;33316;52.298;9.056;2023-04-01T03:38:43;10.90;91.50
47590;DHT22;33316;52.298;9.056;2023-04-01T03:41:12;10.80;91.50
47590;DHT22;33316;52.298;9.056;2023-04-01T03:43:39;10.80;91.50
47590;DHT22;33316;52.298;9.056;2023-04-01T03:46:06;10.80;91.50
47590;DHT22;33316;52.298;9.056;2023-04-01T03:48:32;10.80;91.50
47590;DHT22;33316;52.298;9.056;2023-04-01T03:50:59;10.80;91.60
47590;DHT22;33316;52.298;9.056;2023-04-01T03:53:27;10.80;91.60
47590;DHT22;33316;52.298;9.056;2023-04-01T03:55:53;10.80;91.60
47590;DHT22;33316;52.298;9.056;2023-04-01T03:58:20;10.80;91.60
47590;DHT22;33316;52.298;9.056;2023-04-01T04:00:47;10.80;91.50
47590;DHT22;33316;52.298;9.056;2023-04-01T04:03:13;10.80;91.50
47590;DHT22;33316;52.298;9.056;2023-04-01T04:05:45;10.70;91.50
47590;DHT22;33316;52.298;9.056;2023-04-01T04:08:12;10.70;91.50
47590;DHT22;33316;52.298;9.056;2023-04-01T04:10:40;10.80;91.50
47590;DHT22;33316;52.298;9.056;2023-04-01T04:13:06;10.70;91.50
47590;DHT22;33316;52.298;9.056;2023-04-01T04:15:33;10.70;91.90
47590;DHT22;33316;52.298;9.056;2023-04-01T04:17:59;10.70;91.60
47590;DHT22;33316;52.298;9.056;2023-04-01T04:20:26;10.70;91.60
47590;DHT22;33316;52.298;9.056;2023-04-01T04:22:52;10.70;91.50
47590;DHT22;33316;52.298;9.056;2023-04-01T04:25:19;10.70;91.60
47590;DHT22;33316;52.298;9.056;2023-04-01T04:27:47;10.70;91.60
47590;DHT22;33316;52.298;9.056;2023-04-01T04:30:14;10.70;91.50
47590;DHT22;33316;52.298;9.056;2023-04-01T04:32:41;10.70;91.60
47590;DHT22;33316;52.298;9.056;2023-04-01T04:35:08;10.70;91.50
47590;DHT22;33316;52.298;9.056;2023-04-01T04:37:35;10.70;91.40
47590;DHT22;33316;52.298;9.056;2023-04-01T04:40:01;10.70;91.40
47590;DHT22;33316;52.298;9.056;2023-04-01T04:42:28;10.70;91.40
47590;DHT22;33316;52.298;9.056;2023-04-01T04:44:55;10.70;91.40
47590;DHT22;33316;52.298;9.056;2023-04-01T04:47:22;10.70;91.30
47590;DHT22;33316;52.298;9.056;2023-04-01T04:49:49;10.70;91.40
47590;DHT22;33316;52.298;9.056;2023-04-01T04:52:15;10.70;91.40
47590;DHT22;33316;52.298;9.056;2023-04-01T04:54:42;10.70;91.40
47590;DHT22;33316;52.298;9.056;2023-04-01T04:57:08;10.70;91.40
47590;DHT22;33316;52.298;9.056;2023-04-01T04:59:35;10.70;91.50
47590;DHT22;33316;52.298;9.056;2023-04-01T05:02:03;10.70;91.50
47590;DHT22;33316;52.298;9.056;2023-04-01T05:04:29;10.70;91.50
47590;DHT22;33316;52.298;9.056;2023-04-01T05:07:00;10.70;91.50
47590;DHT22;33316;52.298;9.056;2023-04-01T05:09:26;10.70;91.60
47590;DHT22;33316;52.298;9.056;2023-04-01T05:11:53;10.60;91.60
47590;DHT22;33316;52.298;9.056;2023-04-01T05:14:19;10.70;91.60
47590;DHT22;33316;52.298;9.056;2023-04-01T05:16:46;10.60;91.60
47590;DHT22;33316;52.298;9.056;2023-04-01T05:19:13;10.60;91.70
47590;DHT22;33316;52.298;9.056;2023-04-01T05:21:40;10.60;91.70
47590;DHT22;33316;52.298;9.056;2023-04-01T05:24:07;10.60;91.70
47590;DHT22;33316;52.298;9.056;2023-04-01T05:26:33;10.60;91.70
47590;DHT22;33316;52.298;9.056;2023-04-01T05:29:00;10.60;91.70
47590;DHT22;33316;52.298;9.056;2023-04-01T05:31:26;10.70;91.70
47590;DHT22;33316;52.298;9.056;2023-04-01T05:33:53;10.70;91.70
47590;DHT22;33316;52.298;9.056;2023-04-01T05:36:21;10.70;91.70
47590;DHT22;33316;52.298;9.056;2023-04-01T05:38:48;10.70;91.80
47590;DHT22;33316;52.298;9.056;2023-04-01T05:41:14;10.70;91.70
47590;DHT22;33316;52.298;9.056;2023-04-01T05:43:41;10.70;91.80
47590;DHT22;33316;52.298;9.056;2023-04-01T05:46:08;10.70;91.70
47590;DHT22;33316;52.298;9.056;2023-04-01T05:48:34;10.70;91.70
47590;DHT22;33316;52.298;9.056;2023-04-01T05:51:01;10.70;91.80
47590;DHT22;33316;52.298;9.056;2023-04-01T05:53:29;10.70;91.70
47590;DHT22;33316;52.298;9.056;2023-04-01T05:55:55;10.70;91.70
47590;DHT22;33316;52.298;9.056;2023-04-01T05:58:22;10.70;91.80
47590;DHT22;33316;52.298;9.056;2023-04-01T06:00:48;10.70;91.80
47590;DHT22;33316;52.298;9.056;2023-04-01T06:03:15;10.70;91.80
47590;DHT22;33316;52.298;9.056;2023-04-01T06:05:42;10.70;91.80
47590;DHT22;33316;52.298;9.056;2023-04-01T06:08:09;10.70;91.80
47590;DHT22;33316;52.298;9.056;2023-04-01T06:10:39;10.80;91.80
47590;DHT22;33316;52.298;9.056;2023-04-01T06:13:10;10.80;91.70
47590;DHT22;33316;52.298;9.056;2023-04-01T06:15:39;10.80;91.70
47590;DHT22;33316;52.298;9.056;2023-04-01T06:18:19;10.80;91.70
47590;DHT22;33316;52.298;9.056;2023-04-01T06:20:53;10.90;91.60
47590;DHT22;33316;52.298;9.056;2023-04-01T06:23:35;10.90;91.60
47590;DHT22;33316;52.298;9.056;2023-04-01T06:26:10;10.90;91.90
47590;DHT22;33316;52.298;9.056;2023-04-01T06:28:47;10.90;91.60
47590;DHT22;33316;52.298;9.056;2023-04-01T06:31:19;10.90;91.50
47590;DHT22;33316;52.298;9.056;2023-04-01T06:33:52;10.90;91.50
47590;DHT22;33316;52.298;9.056;2023-04-01T06:36:26;10.90;91.40
47590;DHT22;33316;52.298;9.056;2023-04-01T06:39:03;10.90;91.40
47590;DHT22;33316;52.298;9.056;2023-04-01T06:41:36;11.00;91.50
47590;DHT22;33316;52.298;9.056;2023-04-01T06:44:08;11.00;91.40
47590;DHT22;33316;52.298;9.056;2023-04-01T06:46:42;11.00;91.40
47590;DHT22;33316;52.298;9.056;2023-04-01T06:51:56;11.10;91.40
47590;DHT22;33316;52.298;9.056;2023-04-01T06:54:25;11.10;91.40
47590;DHT22;33316;52.298;9.056;2023-04-01T06:56:57;11.10;91.40
47590;DHT22;33316;52.298;9.056;2023-04-01T06:59:25;11.10;91.30
47590;DHT22;33316;52.298;9.056;2023-04-01T07:01:52;11.10;91.30
47590;DHT22;33316;52.298;9.056;2023-04-01T07:04:20;11.10;91.30
47590;DHT22;33316;52.298;9.056;2023-04-01T07:06:48;11.10;91.40
47590;DHT22;33316;52.298;9.056;2023-04-01T07:09:19;11.20;91.40
47590;DHT22;33316;52.298;9.056;2023-04-01T07:11:45;11.10;91.40
47590;DHT22;33316;52.298;9.056;2023-04-01T07:14:16;11.10;91.40
47590;DHT22;33316;52.298;9.056;2023-04-01T07:16:46;11.10;91.50
47590;DHT22;33316;52.298;9.056;2023-04-01T07:19:15;11.10;91.50
47590;DHT22;33316;52.298;9.056;2023-04-01T07:21:44;11.10;91.60
47590;DHT22;33316;52.298;9.056;2023-04-01T07:24:13;11.10;91.60
47590;DHT22;33316;52.298;9.056;2023-04-01T07:26:42;11.10;91.70
47590;DHT22;33316;52.298;9.056;2023-04-01T07:29:10;11.10;91.70
47590;DHT22;33316;52.298;9.056;2023-04-01T07:31:52;11.20;91.70
47590;DHT22;33316;52.298;9.056;2023-04-01T07:34:24;11.20;91.70
47590;DHT22;33316;52.298;9.056;2023-04-01T07:36:53;11.20;91.70
47590;DHT22;33316;52.298;9.056;2023-04-01T07:39:26;11.20;91.80
47590;DHT22;33316;52.298;9.056;2023-04-01T07:41:59;11.30;91.80
47590;DHT22;33316;52.298;9.056;2023-04-01T07:44:28;11.30;91.70
47590;DHT22;33316;52.298;9.056;2023-04-01T07:49:43;11.40;91.70
47590;DHT22;33316;52.298;9.056;2023-04-01T07:52:17;11.40;91.70
47590;DHT22;33316;52.298;9.056;2023-04-01T07:54:47;11.50;91.70
47590;DHT22;33316;52.298;9.056;2023-04-01T07:57:20;11.50;91.60
47590;DHT22;33316;52.298;9.056;2023-04-01T07:59:50;11.50;91.60
47590;DHT22;33316;52.298;9.056;2023-04-01T08:02:22;11.60;91.40
47590;DHT22;33316;52.298;9.056;2023-04-01T08:04:55;11.60;91.50
47590;DHT22;33316;52.298;9.056;2023-04-01T08:07:28;11.60;91.50
47590;DHT22;33316;52.298;9.056;2023-04-01T08:09:59;11.70;91.50
47590;DHT22;33316;52.298;9.056;2023-04-01T08:12:31;11.70;91.30
47590;DHT22;33316;52.298;9.056;2023-04-01T08:15:06;11.70;91.30
47590;DHT22;33316;52.298;9.056;2023-04-01T08:17:36;11.80;91.30
47590;DHT22;33316;52.298;9.056;2023-04-01T08:20:13;11.80;91.30
47590;DHT22;33316;52.298;9.056;2023-04-01T08:22:45;11.90;91.30
47590;DHT22;33316;52.298;9.056;2023-04-01T08:25:16;11.90;91.20
47590;DHT22;33316;52.298;9.056;2023-04-01T08:27:45;11.90;91.00
47590;DHT22;33316;52.298;9.056;2023-04-01T08:30:16;12.00;91.00
47590;DHT22;33316;52.298;9.056;2023-04-01T08:32:44;12.00;91.00
47590;DHT22;33316;52.298;9.056;2023-04-01T08:35:17;12.00;90.90
47590;DHT22;33316;52.298;9.056;2023-04-01T08:37:44;12.10;91.00
47590;DHT22;33316;52.298;9.056;2023-04-01T08:40:17;12.10;90.80
47590;DHT22;33316;52.298;9.056;2023-04-01T08:42:54;12.20;90.80
47590;DHT22;33316;52.298;9.056;2023-04-01T08:45:35;12.20;90.80
47590;DHT22;33316;52.298;9.056;2023-04-01T08:48:18;12.30;90.80
47590;DHT22;33316;52.298;9.056;2023-04-01T08:53:42;12.30;90.60
47590;DHT22;33316;52.298;9.056;2023-04-01T08:56:12;12.30;90.50
47590;DHT22;33316;52.298;9.056;2023-04-01T08:58:50;12.30;90.50
47590;DHT22;33316;52.298;9.056;2023-04-01T09:01:24;12.30;90.40
47590;DHT22;33316;52.298;9.056;2023-04-01T09:03:58;12.30;90.40
47590;DHT22;33316;52.298;9.056;2023-04-01T09:06:35;12.40;90.40
47590;DHT22;33316;52.298;9.056;2023-04-01T09:11:57;12.40;90.50
47590;DHT22;33316;52.298;9.056;2023-04-01T09:14:31;12.40;90.40
47590;DHT22;33316;52.298;9.056;2023-04-01T09:19:50;12.40;90.30
47590;DHT22;33316;52.298;9.056;2023-04-01T09:22:25;12.40;90.20
47590;DHT22;33316;52.298;9.056;2023-04-01T09:27:44;12.40;90.10
47590;DHT22;33316;52.298;9.056;2023-04-01T09:35:50;12.40;90.10
47590;DHT22;33316;52.298;9.056;2023-04-01T09:38:21;12.30;90.40
47590;DHT22;33316;52.298;9.056;2023-04-01T09:40:53;12.30;90.10
47590;DHT22;33316;52.298;9.056;2023-04-01T09:43:23;12.30;90.10
47590;DHT22;33316;52.298;9.056;2023-04-01T09:45:58;12.30;90.20
47590;DHT22;33316;52.298;9.056;2023-04-01T09:48:46;12.30;90.20
47590;DHT22;33316;52.298;9.056;2023-04-01T09:51:22;12.30;90.30
47590;DHT22;33316;52.298;9.056;2023-04-01T09:53:54;12.30;90.30
47590;DHT22;33316;52.298;9.056;2023-04-01T09:59:16;12.20;90.40
47590;DHT22;33316;52.298;9.056;2023-04-01T10:07:31;12.20;90.60
47590;DHT22;33316;52.298;9.056;2023-04-01T10:10:26;12.20;90.70
47590;DHT22;33316;52.298;9.056;2023-04-01T10:13:03;12.20;90.80
47590;DHT22;33316;52.298;9.056;2023-04-01T10:15:35;12.20;91.20
47590;DHT22;33316;52.298;9.056;2023-04-01T10:18:15;12.20;90.90
47590;DHT22;33316;52.298;9.056;2023-04-01T10:20:54;12.30;91.00
47590;DHT22;33316;52.298;9.056;2023-04-01T10:23:27;12.30;91.10
47590;DHT22;33316;52.298;9.056;2023-04-01T10:26:07;12.30;91.00
47590;DHT22;33316;52.298;9.056;2023-04-01T10:28:56;12.30;91.00
47590;DHT22;33316;52.298;9.056;2023-04-01T10:31:44;12.30;91.10
47590;DHT22;33316;52.298;9.056;2023-04-01T10:37:03;12.40;91.10
47590;DHT22;33316;52.298;9.056;2023-04-01T10:42:23;12.50;91.10
47590;DHT22;33316;52.298;9.056;2023-04-01T10:48:09;12.50;90.90
47590;DHT22;33316;52.298;9.056;2023-04-01T10:50:47;12.50;91.00
47590;DHT22;33316;52.298;9.056;2023-04-01T10:53:31;12.50;90.90
47590;DHT22;33316;52.298;9.056;2023-04-01T10:59:01;12.60;90.90
47590;DHT22;33316;52.298;9.056;2023-04-01T11:01:44;12.60;90.90
47590;DHT22;33316;52.298;9.056;2023-04-01T11:04:29;12.60;91.00
47590;DHT22;33316;52.298;9.056;2023-04-01T11:15:42;12.60;91.20
47590;DHT22;33316;52.298;9.056;2023-04-01T11:21:05;12.70;91.20
47590;DHT22;33316;52.298;9.056;2023-04-01T11:23:46;12.70;91.20
47590;DHT22;33316;52.298;9.056;2023-04-01T11:26:19;12.80;91.30
47590;DHT22;33316;52.298;9.056;2023-04-01T11:28:57;12.80;91.30
47590;DHT22;33316;52.298;9.056;2023-04-01T11:31:44;12.80;91.20
47590;DHT22;33316;52.298;9.056;2023-04-01T11:34:22;12.80;91.00
47590;DHT22;33316;52.298;9.056;2023-04-01T11:36:56;12.80;91.00
47590;DHT22;33316;52.298;9.056;2023-04-01T11:39:30;12.80;91.00
47590;DHT22;33316;52.298;9.056;2023-04-01T11:42:01;12.90;91.10
47590;DHT22;33316;52.298;9.056;2023-04-01T11:44:30;12.90;91.10
47590;DHT22;33316;52.298;9.056;2023-04-01T11:49:48;13.00;91.10
47590;DHT22;33316;52.298;9.056;2023-04-01T11:52:22;13.00;91.00
47590;DHT22;33316;52.298;9.056;2023-04-01T11:55:02;13.00;91.00
47590;DHT22;33316;52.298;9.056;2023-04-01T11:57:37;13.10;90.80
47590;DHT22;33316;52.298;9.056;2023-04-01T12:00:14;13.10;90.70
47590;DHT22;33316;52.298;9.056;2023-04-01T12:02:47;13.10;90.60
47590;DHT22;33316;52.298;9.056;2023-04-01T12:05:22;13.10;90.50
47590;DHT22;33316;52.298;9.056;2023-04-01T12:07:55;13.10;90.50
47590;DHT22;33316;52.298;9.056;2023-04-01T12:10:25;13.10;90.50
47590;DHT22;33316;52.298;9.056;2023-04-01T12:12:54;13.20;90.50
47590;DHT22;33316;52.298;9.056;2023-04-01T12:15:28;13.20;90.50
47590;DHT22;33316;52.298;9.056;2023-04-01T12:17:56;13.20;90.40
47590;DHT22;33316;52.298;9.056;2023-04-01T12:20:31;13.20;90.30
47590;DHT22;33316;52.298;9.056;2023-04-01T12:23:05;13.20;90.20
47590;DHT22;33316;52.298;9.056;2023-04-01T12:25:43;13.20;90.30
47590;DHT22;33316;52.298;9.056;2023-04-01T12:28:14;13.30;90.30
47590;DHT22;33316;52.298;9.056;2023-04-01T12:30:50;13.20;90.10
47590;DHT22;33316;52.298;9.056;2023-04-01T12:33:24;13.30;90.20
47590;DHT22;33316;52.298;9.056;2023-04-01T12:35:55;13.20;90.30
47590;DHT22;33316;52.298;9.056;2023-04-01T12:38:29;13.20;90.20
47590;DHT22;33316;52.298;9.056;2023-04-01T12:41:02;13.20;90.30
47590;DHT22;33316;52.298;9.056;2023-04-01T12:43:42;13.20;90.30
47590;DHT22;33316;52.298;9.056;2023-04-01T12:46:13;13.30;90.30
47590;DHT22;33316;52.298;9.056;2023-04-01T12:51:36;13.30;90.50
47590;DHT22;33316;52.298;9.056;2023-04-01T12:54:20;13.30;90.60
47590;DHT22;33316;52.298;9.056;2023-04-01T12:56:54;13.30;90.60
47590;DHT22;33316;52.298;9.056;2023-04-01T12:59:28;13.40;90.40
47590;DHT22;33316;52.298;9.056;2023-04-01T13:02:06;13.30;90.20
47590;DHT22;33316;52.298;9.056;2023-04-01T13:04:48;13.30;90.00
47590;DHT22;33316;52.298;9.056;2023-04-01T13:10:04;13.30;90.10
47590;DHT22;33316;52.298;9.056;2023-04-01T13:12:37;13.30;90.00
47590;DHT22;33316;52.298;9.056;2023-04-01T13:15:08;13.20;90.00
47590;DHT22;33316;52.298;9.056;2023-04-01T13:17:39;13.20;89.60
47590;DHT22;33316;52.298;9.056;2023-04-01T13:20:13;13.20;89.60
47590;DHT22;33316;52.298;9.056;2023-04-01T13:22:45;13.20;89.70
47590;DHT22;33316;52.298;9.056;2023-04-01T13:25:17;13.20;90.10
47590;DHT22;33316;52.298;9.056;2023-04-01T13:27:50;13.20;90.20
47590;DHT22;33316;52.298;9.056;2023-04-01T13:30:22;13.20;90.00
47590;DHT22;33316;52.298;9.056;2023-04-01T13:32:52;13.10;90.00
47590;DHT22;33316;52.298;9.056;2023-04-01T13:35:28;13.10;90.10
47590;DHT22;33316;52.298;9.056;2023-04-01T13:38:02;13.20;90.10
47590;DHT22;33316;52.298;9.056;2023-04-01T13:40:37;13.20;90.10
47590;DHT22;33316;52.298;9.056;2023-04-01T13:43:08;13.10;90.10
47590;DHT22;33316;52.298;9.056;2023-04-01T13:45:38;13.20;90.20
47590;DHT22;33316;52.298;9.056;2023-04-01T13:48:15;13.20;90.20
47590;DHT22;33316;52.298;9.056;2023-04-01T13:50:47;13.20;90.30
47590;DHT22;33316;52.298;9.056;2023-04-01T13:53:23;13.10;90.30
47590;DHT22;33316;52.298;9.056;2023-04-01T13:55:56;13.10;90.30
47590;DHT22;33316;52.298;9.056;2023-04-01T13:58:35;13.10;90.20
47590;DHT22;33316;52.298;9.056;2023-04-01T14:01:06;13.10;90.10
47590;DHT22;33316;52.298;9.056;2023-04-01T14:06:20;13.10;90.10
47590;DHT22;33316;52.298;9.056;2023-04-01T14:09:02;13.10;90.10
47590;DHT22;33316;52.298;9.056;2023-04-01T14:11:36;13.10;90.20
47590;DHT22;33316;52.298;9.056;2023-04-01T14:14:08;13.10;90.30
47590;DHT22;33316;52.298;9.056;2023-04-01T14:16:44;13.10;90.40
47590;DHT22;33316;52.298;9.056;2023-04-01T14:19:19;13.00;90.40
47590;DHT22;33316;52.298;9.056;2023-04-01T14:21:51;13.10;90.50
47590;DHT22;33316;52.298;9.056;2023-04-01T14:24:22;13.10;90.60
47590;DHT22;33316;52.298;9.056;2023-04-01T14:29:38;13.10;90.70
47590;DHT22;33316;52.298;9.056;2023-04-01T14:32:11;13.10;90.80
47590;DHT22;33316;52.298;9.056;2023-04-01T14:34:50;13.10;90.70
47590;DHT22;33316;52.298;9.056;2023-04-01T14:37:29;13.10;90.70
47590;DHT22;33316;52.298;9.056;2023-04-01T14:40:03;13.10;90.70
47590;DHT22;33316;52.298;9.056;2023-04-01T14:45:37;13.00;90.80
47590;DHT22;33316;52.298;9.056;2023-04-01T14:48:13;13.00;90.80
47590;DHT22;33316;52.298;9.056;2023-04-01T14:50:41;13.00;90.70
47590;DHT22;33316;52.298;9.056;2023-04-01T14:53:11;12.90;90.50
47590;DHT22;33316;52.298;9.056;2023-04-01T14:55:44;12.80;90.60
47590;DHT22;33316;52.298;9.056;2023-04-01T14:58:14;12.70;91.10
47590;DHT22;33316;52.298;9.056;2023-04-01T15:00:52;12.50;91.40
47590;DHT22;33316;52.298;9.056;2023-04-01T15:03:22;12.20;91.20
47590;DHT22;33316;52.298;9.056;2023-04-01T15:05:50;12.00;91.60
47590;DHT22;33316;52.298;9.056;2023-04-01T15:08:20;11.80;92.00
47590;DHT22;33316;52.298;9.056;2023-04-01T15:10:58;11.60;92.20
47590;DHT22;33316;52.298;9.056;2023-04-01T15:13:40;11.50;92.40
47590;DHT22;33316;52.298;9.056;2023-04-01T15:16:13;11.40;92.80
47590;DHT22;33316;52.298;9.056;2023-04-01T15:18:44;11.20;92.80
47590;DHT22;33316;52.298;9.056;2023-04-01T15:21:18;11.10;92.90
47590;DHT22;33316;52.298;9.056;2023-04-01T15:23:52;11.00;93.10
47590;DHT22;33316;52.298;9.056;2023-04-01T15:26:31;11.00;93.40
47590;DHT22;33316;52.298;9.056;2023-04-01T15:29:11;10.90;93.60
47590;DHT22;33316;52.298;9.056;2023-04-01T15:31:44;10.80;93.70
47590;DHT22;33316;52.298;9.056;2023-04-01T15:34:22;10.80;93.60
47590;DHT22;33316;52.298;9.056;2023-04-01T15:36:53;10.70;93.80
47590;DHT22;33316;52.298;9.056;2023-04-01T15:39:24;10.70;93.70
47590;DHT22;33316;52.298;9.056;2023-04-01T15:42:01;10.60;93.60
47590;DHT22;33316;52.298;9.056;2023-04-01T15:44:40;10.50;93.60
47590;DHT22;33316;52.298;9.056;2023-04-01T15:47:16;10.50;93.70
47590;DHT22;33316;52.298;9.056;2023-04-01T15:49:52;10.40;93.70
47590;DHT22;33316;52.298;9.056;2023-04-01T15:52:22;10.40;93.80
47590;DHT22;33316;52.298;9.056;2023-04-01T15:57:37;10.30;93.80
47590;DHT22;33316;52.298;9.056;2023-04-01T16:00:10;10.30;93.90
47590;DHT22;33316;52.298;9.056;2023-04-01T16:02:42;10.20;93.90
47590;DHT22;33316;52.298;9.056;2023-04-01T16:05:13;10.10;94.00
47590;DHT22;33316;52.298;9.056;2023-04-01T16:07:54;10.10;94.00
47590;DHT22;33316;52.298;9.056;2023-04-01T16:10:25;10.00;94.00
47590;DHT22;33316;52.298;9.056;2023-04-01T16:12:56;10.00;94.00
47590;DHT22;33316;52.298;9.056;2023-04-01T16:15:26;9.90;94.10
47590;DHT22;33316;52.298;9.056;2023-04-01T16:20:42;9.80;94.20
47590;DHT22;33316;52.298;9.056;2023-04-01T16:23:10;9.80;94.20
47590;DHT22;33316;52.298;9.056;2023-04-01T16:25:39;9.80;94.30
47590;DHT22;33316;52.298;9.056;2023-04-01T16:28:17;9.80;94.10
47590;DHT22;33316;52.298;9.056;2023-04-01T16:30:46;9.70;94.10
47590;DHT22;33316;52.298;9.056;2023-04-01T16:33:15;9.70;94.20
47590;DHT22;33316;52.298;9.056;2023-04-01T16:35:50;9.70;94.10
47590;DHT22;33316;52.298;9.056;2023-04-01T16:38:21;9.60;94.20
47590;DHT22;33316;52.298;9.056;2023-04-01T16:40:51;9.60;94.30
47590;DHT22;33316;52.298;9.056;2023-04-01T16:43:20;9.50;94.40
47590;DHT22;33316;52.298;9.056;2023-04-01T16:45:53;9.50;94.50
47590;DHT22;33316;52.298;9.056;2023-04-01T16:48:21;9.50;94.40
47590;DHT22;33316;52.298;9.056;2023-04-01T16:50:53;9.40;94.20
47590;DHT22;33316;52.298;9.056;2023-04-01T16:53:24;9.40;94.10
47590;DHT22;33316;52.298;9.056;2023-04-01T16:55:52;9.30;94.00
47590;DHT22;33316;52.298;9.056;2023-04-01T16:58:26;9.30;94.10
47590;DHT22;33316;52.298;9.056;2023-04-01T17:00:55;9.20;94.30
47590;DHT22;33316;52.298;9.056;2023-04-01T17:03:26;9.20;94.20
47590;DHT22;33316;52.298;9.056;2023-04-01T17:06:02;9.20;94.60
47590;DHT22;33316;52.298;9.056;2023-04-01T17:08:36;9.20;94.60
47590;DHT22;33316;52.298;9.056;2023-04-01T17:11:07;9.20;94.40
47590;DHT22;33316;52.298;9.056;2023-04-01T17:13:39;9.10;94.50
47590;DHT22;33316;52.298;9.056;2023-04-01T17:16:15;9.10;94.30